sensor_id;sensor_type;location;lat;lon;timestamp;P1;durP1;ratioP1;P2;durP2;ratioP2
15126;SDS011;7664;52.008;4.748;2022-09-30T00:01:32;4.13;;;2.88;;
15126;SDS011;7664;52.008;4.748;2022-09-30T00:04:02;5.65;;;3.50;;
15126;SDS011;7664;52.008;4.748;2022-09-30T00:06:31;3.88;;;3.25;;
15126;SDS011;7664;52.008;4.748;2022-09-30T00:09:02;4.10;;;3.22;;
15126;SDS011;7664;52.008;4.748;2022-09-30T00:11:33;3.28;;;2.75;;
15126;SDS011;7664;52.008;4.748;2022-09-30T00:14:04;2.83;;;2.50;;
15126;SDS011;7664;52.008;4.748;2022-09-30T00:16:33;4.60;;;3.40;;
15126;SDS011;7664;52.008;4.748;2022-09-30T00:19:02;3.92;;;3.10;;
15126;SDS011;7664;52.008;4.748;2022-09-30T00:21:31;6.68;;;3.42;;
15126;SDS011;7664;52.008;4.748;2022-09-30T00:23:59;4.35;;;3.17;;
15126;SDS011;7664;52.008;4.748;2022-09-30T00:26:30;2.85;;;2.55;;
15126;SDS011;7664;52.008;4.748;2022-09-30T00:28:59;3.83;;;3.08;;
15126;SDS011;7664;52.008;4.748;2022-09-30T00:31:28;4.10;;;2.92;;
15126;SDS011;7664;52.008;4.748;2022-09-30T00:33:58;4.85;;;3.20;;
15126;SDS011;7664;52.008;4.748;2022-09-30T00:36:39;2.42;;;2.00;;
15126;SDS011;7664;52.008;4.748;2022-09-30T00:39:10;3.67;;;2.60;;
15126;SDS011;7664;52.008;4.748;2022-09-30T00:41:42;4.60;;;2.60;;
15126;SDS011;7664;52.008;4.748;2022-09-30T00:47:17;3.25;;;2.58;;
15126;SDS011;7664;52.008;4.748;2022-09-30T00:49:56;3.13;;;2.67;;
15126;SDS011;7664;52.008;4.748;2022-09-30T00:52:27;3.83;;;2.88;;
15126;SDS011;7664;52.008;4.748;2022-09-30T00:54:57;4.18;;;2.85;;
15126;SDS011;7664;52.008;4.748;2022-09-30T00:57:28;3.42;;;2.90;;
15126;SDS011;7664;52.008;4.748;2022-09-30T00:59:57;3.50;;;2.97;;
15126;SDS011;7664;52.008;4.748;2022-09-30T01:02:25;3.38;;;2.70;;
15126;SDS011;7664;52.008;4.748;2022-09-30T01:04:53;3.42;;;2.65;;
15126;SDS011;7664;52.008;4.748;2022-09-30T01:07:23;4.38;;;2.88;;
15126;SDS011;7664;52.008;4.748;2022-09-30T01:09:51;4.15;;;2.45;;
15126;SDS011;7664;52.008;4.748;2022-09-30T01:12:20;3.53;;;2.70;;
15126;SDS011;7664;52.008;4.748;2022-09-30T01:14:52;3.58;;;2.92;;
15126;SDS011;7664;52.008;4.748;2022-09-30T01:17:25;4.78;;;2.67;;
15126;SDS011;7664;52.008;4.748;2022-09-30T01:20:07;3.65;;;2.47;;
15126;SDS011;7664;52.008;4.748;2022-09-30T01:22:56;4.28;;;2.92;;
15126;SDS011;7664;52.008;4.748;2022-09-30T01:28:45;4.03;;;2.67;;
15126;SDS011;7664;52.008;4.748;2022-09-30T01:31:43;4.45;;;2.70;;
15126;SDS011;7664;52.008;4.748;2022-09-30T01:34:19;3.30;;;2.58;;
15126;SDS011;7664;52.008;4.748;2022-09-30T01:37:00;4.97;;;2.78;;
15126;SDS011;7664;52.008;4.748;2022-09-30T01:39:36;4.72;;;3.38;;
15126;SDS011;7664;52.008;4.748;2022-09-30T01:42:12;3.92;;;2.58;;
15126;SDS011;7664;52.008;4.748;2022-09-30T01:44:51;3.60;;;2.60;;
15126;SDS011;7664;52.008;4.748;2022-09-30T01:47:29;3.70;;;2.95;;
15126;SDS011;7664;52.008;4.748;2022-09-30T01:50:02;4.00;;;3.10;;
15126;SDS011;7664;52.008;4.748;2022-09-30T01:52:36;5.22;;;2.97;;
15126;SDS011;7664;52.008;4.748;2022-09-30T01:55:11;6.18;;;3.53;;
15126;SDS011;7664;52.008;4.748;2022-09-30T01:57:44;3.70;;;3.03;;
15126;SDS011;7664;52.008;4.748;2022-09-30T02:00:19;3.33;;;2.72;;
15126;SDS011;7664;52.008;4.748;2022-09-30T02:02:49;3.70;;;3.10;;
15126;SDS011;7664;52.008;4.748;2022-09-30T02:05:22;3.47;;;3.03;;
15126;SDS011;7664;52.008;4.748;2022-09-30T02:07:54;3.88;;;2.75;;
15126;SDS011;7664;52.008;4.748;2022-09-30T02:10:25;3.33;;;2.90;;
15126;SDS011;7664;52.008;4.748;2022-09-30T02:12:58;3.42;;;2.67;;
15126;SDS011;7664;52.008;4.748;2022-09-30T02:15:31;5.97;;;2.88;;
15126;SDS011;7664;52.008;4.748;2022-09-30T02:18:09;3.03;;;2.45;;
15126;SDS011;7664;52.008;4.748;2022-09-30T02:20:41;3.33;;;2.60;;
15126;SDS011;7664;52.008;4.748;2022-09-30T02:23:11;4.03;;;2.75;;
15126;SDS011;7664;52.008;4.748;2022-09-30T02:25:46;6.63;;;2.83;;
15126;SDS011;7664;52.008;4.748;2022-09-30T02:28:16;4.05;;;3.10;;
15126;SDS011;7664;52.008;4.748;2022-09-30T02:30:53;3.30;;;2.63;;
15126;SDS011;7664;52.008;4.748;2022-09-30T02:33:28;3.33;;;2.65;;
15126;SDS011;7664;52.008;4.748;2022-09-30T02:36:00;4.25;;;2.72;;
15126;SDS011;7664;52.008;4.748;2022-09-30T02:38:32;4.35;;;2.85;;
15126;SDS011;7664;52.008;4.748;2022-09-30T02:41:07;3.80;;;2.85;;
15126;SDS011;7664;52.008;4.748;2022-09-30T02:43:37;4.53;;;2.88;;
15126;SDS011;7664;52.008;4.748;2022-09-30T02:46:09;4.32;;;3.33;;
15126;SDS011;7664;52.008;4.748;2022-09-30T02:48:51;3.58;;;2.80;;
15126;SDS011;7664;52.008;4.748;2022-09-30T02:51:26;3.72;;;3.03;;
15126;SDS011;7664;52.008;4.748;2022-09-30T02:54:06;5.45;;;3.28;;
15126;SDS011;7664;52.008;4.748;2022-09-30T02:56:45;3.83;;;3.00;;
15126;SDS011;7664;52.008;4.748;2022-09-30T02:59:20;4.55;;;2.83;;
15126;SDS011;7664;52.008;4.748;2022-09-30T03:01:49;6.63;;;3.42;;
15126;SDS011;7664;52.008;4.748;2022-09-30T03:04:19;4.65;;;3.00;;
15126;SDS011;7664;52.008;4.748;2022-09-30T03:06:51;6.38;;;3.28;;
15126;SDS011;7664;52.008;4.748;2022-09-30T03:09:23;5.25;;;3.30;;
15126;SDS011;7664;52.008;4.748;2022-09-30T03:11:52;5.75;;;3.13;;
15126;SDS011;7664;52.008;4.748;2022-09-30T03:14:40;3.92;;;3.13;;
15126;SDS011;7664;52.008;4.748;2022-09-30T03:17:32;3.92;;;2.80;;
15126;SDS011;7664;52.008;4.748;2022-09-30T03:20:27;4.20;;;2.92;;
15126;SDS011;7664;52.008;4.748;2022-09-30T03:23:10;2.88;;;2.45;;
15126;SDS011;7664;52.008;4.748;2022-09-30T03:26:05;4.93;;;2.90;;
15126;SDS011;7664;52.008;4.748;2022-09-30T03:28:43;4.72;;;2.92;;
15126;SDS011;7664;52.008;4.748;2022-09-30T03:31:21;4.03;;;3.13;;
15126;SDS011;7664;52.008;4.748;2022-09-30T03:33:57;3.80;;;2.67;;
15126;SDS011;7664;52.008;4.748;2022-09-30T03:36:39;3.00;;;2.50;;
15126;SDS011;7664;52.008;4.748;2022-09-30T03:39:12;3.95;;;2.80;;
15126;SDS011;7664;52.008;4.748;2022-09-30T03:41:45;10.20;;;5.85;;
15126;SDS011;7664;52.008;4.748;2022-09-30T03:44:20;12.35;;;8.70;;
15126;SDS011;7664;52.008;4.748;2022-09-30T03:46:52;9.57;;;5.97;;
15126;SDS011;7664;52.008;4.748;2022-09-30T03:49:23;7.22;;;4.70;;
15126;SDS011;7664;52.008;4.748;2022-09-30T03:51:58;4.60;;;3.08;;
15126;SDS011;7664;52.008;4.748;2022-09-30T03:54:26;6.07;;;2.92;;
15126;SDS011;7664;52.008;4.748;2022-09-30T03:56:54;2.95;;;2.28;;
15126;SDS011;7664;52.008;4.748;2022-09-30T03:59:23;4.85;;;2.60;;
15126;SDS011;7664;52.008;4.748;2022-09-30T04:01:53;4.05;;;3.20;;
15126;SDS011;7664;52.008;4.748;2022-09-30T04:04:22;4.75;;;2.80;;
15126;SDS011;7664;52.008;4.748;2022-09-30T04:06:50;4.00;;;2.95;;
15126;SDS011;7664;52.008;4.748;2022-09-30T04:09:19;6.40;;;2.75;;
15126;SDS011;7664;52.008;4.748;2022-09-30T04:11:47;4.15;;;2.85;;
15126;SDS011;7664;52.008;4.748;2022-09-30T04:14:15;3.83;;;2.67;;
15126;SDS011;7664;52.008;4.748;2022-09-30T04:16:43;4.53;;;2.60;;
15126;SDS011;7664;52.008;4.748;2022-09-30T04:19:13;4.50;;;2.55;;
15126;SDS011;7664;52.008;4.748;2022-09-30T04:21:41;4.28;;;3.08;;
15126;SDS011;7664;52.008;4.748;2022-09-30T04:24:09;6.05;;;2.85;;
15126;SDS011;7664;52.008;4.748;2022-09-30T04:26:38;4.95;;;3.20;;
15126;SDS011;7664;52.008;4.748;2022-09-30T04:29:06;4.32;;;2.78;;
15126;SDS011;7664;52.008;4.748;2022-09-30T04:31:34;4.65;;;3.58;;
15126;SDS011;7664;52.008;4.748;2022-09-30T04:34:02;6.07;;;3.83;;
15126;SDS011;7664;52.008;4.748;2022-09-30T04:36:30;5.30;;;4.25;;
15126;SDS011;7664;52.008;4.748;2022-09-30T04:38:58;5.45;;;4.20;;
15126;SDS011;7664;52.008;4.748;2022-09-30T04:41:26;6.72;;;4.40;;
15126;SDS011;7664;52.008;4.748;2022-09-30T04:43:55;6.65;;;4.88;;
15126;SDS011;7664;52.008;4.748;2022-09-30T04:46:23;7.00;;;4.53;;
15126;SDS011;7664;52.008;4.748;2022-09-30T04:48:51;8.05;;;5.40;;
15126;SDS011;7664;52.008;4.748;2022-09-30T04:51:19;6.97;;;4.70;;
15126;SDS011;7664;52.008;4.748;2022-09-30T04:53:48;7.50;;;4.85;;
15126;SDS011;7664;52.008;4.748;2022-09-30T04:56:15;6.30;;;4.40;;
15126;SDS011;7664;52.008;4.748;2022-09-30T04:58:44;9.70;;;5.55;;
15126;SDS011;7664;52.008;4.748;2022-09-30T05:01:14;8.40;;;5.32;;
15126;SDS011;7664;52.008;4.748;2022-09-30T05:03:43;7.60;;;4.88;;
15126;SDS011;7664;52.008;4.748;2022-09-30T05:06:12;8.45;;;5.13;;
15126;SDS011;7664;52.008;4.748;2022-09-30T05:08:40;6.43;;;4.70;;
15126;SDS011;7664;52.008;4.748;2022-09-30T05:11:12;6.32;;;4.50;;
15126;SDS011;7664;52.008;4.748;2022-09-30T05:13:42;6.22;;;3.97;;
15126;SDS011;7664;52.008;4.748;2022-09-30T05:16:11;7.15;;;3.88;;
15126;SDS011;7664;52.008;4.748;2022-09-30T05:18:42;7.07;;;3.90;;
15126;SDS011;7664;52.008;4.748;2022-09-30T05:21:12;7.18;;;4.50;;
15126;SDS011;7664;52.008;4.748;2022-09-30T05:23:40;6.65;;;4.10;;
15126;SDS011;7664;52.008;4.748;2022-09-30T05:26:08;6.65;;;3.95;;
15126;SDS011;7664;52.008;4.748;2022-09-30T05:28:38;5.63;;;3.55;;
15126;SDS011;7664;52.008;4.748;2022-09-30T05:31:06;5.45;;;3.75;;
15126;SDS011;7664;52.008;4.748;2022-09-30T05:33:34;6.05;;;3.78;;
15126;SDS011;7664;52.008;4.748;2022-09-30T05:36:05;7.75;;;5.05;;
15126;SDS011;7664;52.008;4.748;2022-09-30T05:38:34;5.88;;;4.07;;
15126;SDS011;7664;52.008;4.748;2022-09-30T05:41:05;6.75;;;4.80;;
15126;SDS011;7664;52.008;4.748;2022-09-30T05:43:37;5.82;;;4.10;;
15126;SDS011;7664;52.008;4.748;2022-09-30T05:46:05;4.88;;;3.78;;
15126;SDS011;7664;52.008;4.748;2022-09-30T05:48:34;5.63;;;3.63;;
15126;SDS011;7664;52.008;4.748;2022-09-30T05:51:03;5.35;;;3.85;;
15126;SDS011;7664;52.008;4.748;2022-09-30T05:53:33;5.63;;;3.65;;
15126;SDS011;7664;52.008;4.748;2022-09-30T05:56:04;5.43;;;3.72;;
15126;SDS011;7664;52.008;4.748;2022-09-30T05:58:32;7.47;;;4.13;;
15126;SDS011;7664;52.008;4.748;2022-09-30T06:01:02;6.28;;;4.57;;
15126;SDS011;7664;52.008;4.748;2022-09-30T06:03:39;8.27;;;4.85;;
15126;SDS011;7664;52.008;4.748;2022-09-30T06:06:08;4.20;;;3.63;;
15126;SDS011;7664;52.008;4.748;2022-09-30T06:08:37;6.30;;;3.15;;
15126;SDS011;7664;52.008;4.748;2022-09-30T06:11:07;6.35;;;3.80;;
15126;SDS011;7664;52.008;4.748;2022-09-30T06:13:38;5.90;;;4.03;;
15126;SDS011;7664;52.008;4.748;2022-09-30T06:16:07;6.82;;;4.53;;
15126;SDS011;7664;52.008;4.748;2022-09-30T06:18:36;8.15;;;4.88;;
15126;SDS011;7664;52.008;4.748;2022-09-30T06:21:09;9.35;;;5.05;;
15126;SDS011;7664;52.008;4.748;2022-09-30T06:23:39;6.07;;;4.18;;
15126;SDS011;7664;52.008;4.748;2022-09-30T06:26:07;11.90;;;6.03;;
15126;SDS011;7664;52.008;4.748;2022-09-30T06:28:38;8.52;;;5.30;;
15126;SDS011;7664;52.008;4.748;2022-09-30T06:31:07;8.95;;;5.60;;
15126;SDS011;7664;52.008;4.748;2022-09-30T06:33:36;9.30;;;5.65;;
15126;SDS011;7664;52.008;4.748;2022-09-30T06:36:04;7.18;;;5.40;;
15126;SDS011;7664;52.008;4.748;2022-09-30T06:38:34;8.15;;;6.03;;
15126;SDS011;7664;52.008;4.748;2022-09-30T06:41:04;7.03;;;5.43;;
15126;SDS011;7664;52.008;4.748;2022-09-30T06:43:33;10.05;;;5.72;;
15126;SDS011;7664;52.008;4.748;2022-09-30T06:46:19;9.52;;;6.40;;
15126;SDS011;7664;52.008;4.748;2022-09-30T06:48:56;10.23;;;7.13;;
15126;SDS011;7664;52.008;4.748;2022-09-30T06:51:39;11.00;;;7.28;;
15126;SDS011;7664;52.008;4.748;2022-09-30T06:54:09;11.70;;;6.63;;
15126;SDS011;7664;52.008;4.748;2022-09-30T06:56:38;13.20;;;7.50;;
15126;SDS011;7664;52.008;4.748;2022-09-30T06:59:07;12.85;;;7.45;;
15126;SDS011;7664;52.008;4.748;2022-09-30T07:01:35;11.77;;;7.50;;
15126;SDS011;7664;52.008;4.748;2022-09-30T07:04:04;12.00;;;8.07;;
15126;SDS011;7664;52.008;4.748;2022-09-30T07:06:35;12.30;;;8.52;;
15126;SDS011;7664;52.008;4.748;2022-09-30T07:09:04;11.95;;;8.15;;
15126;SDS011;7664;52.008;4.748;2022-09-30T07:11:34;13.48;;;9.43;;
15126;SDS011;7664;52.008;4.748;2022-09-30T07:14:03;13.82;;;9.25;;
15126;SDS011;7664;52.008;4.748;2022-09-30T07:16:31;13.77;;;9.40;;
15126;SDS011;7664;52.008;4.748;2022-09-30T07:19:00;12.85;;;9.70;;
15126;SDS011;7664;52.008;4.748;2022-09-30T07:21:28;15.25;;;10.23;;
15126;SDS011;7664;52.008;4.748;2022-09-30T07:23:57;17.70;;;11.52;;
15126;SDS011;7664;52.008;4.748;2022-09-30T07:26:25;16.58;;;12.00;;
15126;SDS011;7664;52.008;4.748;2022-09-30T07:28:55;16.35;;;11.20;;
15126;SDS011;7664;52.008;4.748;2022-09-30T07:31:26;15.38;;;11.40;;
15126;SDS011;7664;52.008;4.748;2022-09-30T07:34:00;18.77;;;13.52;;
15126;SDS011;7664;52.008;4.748;2022-09-30T07:36:28;19.52;;;12.65;;
15126;SDS011;7664;52.008;4.748;2022-09-30T07:38:59;16.58;;;12.18;;
15126;SDS011;7664;52.008;4.748;2022-09-30T07:41:32;19.80;;;12.50;;
15126;SDS011;7664;52.008;4.748;2022-09-30T07:44:03;16.60;;;11.43;;
15126;SDS011;7664;52.008;4.748;2022-09-30T07:46:34;14.32;;;10.48;;
15126;SDS011;7664;52.008;4.748;2022-09-30T07:49:04;15.82;;;11.52;;
15126;SDS011;7664;52.008;4.748;2022-09-30T07:51:35;17.58;;;12.05;;
15126;SDS011;7664;52.008;4.748;2022-09-30T07:54:04;13.80;;;10.82;;
15126;SDS011;7664;52.008;4.748;2022-09-30T07:56:34;15.48;;;11.20;;
15126;SDS011;7664;52.008;4.748;2022-09-30T07:59:25;15.52;;;11.00;;
15126;SDS011;7664;52.008;4.748;2022-09-30T08:01:53;13.65;;;10.57;;
15126;SDS011;7664;52.008;4.748;2022-09-30T08:04:22;17.63;;;11.30;;
15126;SDS011;7664;52.008;4.748;2022-09-30T08:06:52;12.80;;;10.00;;
15126;SDS011;7664;52.008;4.748;2022-09-30T08:09:23;14.75;;;10.50;;
15126;SDS011;7664;52.008;4.748;2022-09-30T08:11:53;17.15;;;10.48;;
15126;SDS011;7664;52.008;4.748;2022-09-30T08:14:21;14.63;;;10.70;;
15126;SDS011;7664;52.008;4.748;2022-09-30T08:16:52;13.50;;;10.18;;
15126;SDS011;7664;52.008;4.748;2022-09-30T08:19:21;10.55;;;8.40;;
15126;SDS011;7664;52.008;4.748;2022-09-30T08:21:50;13.45;;;9.38;;
15126;SDS011;7664;52.008;4.748;2022-09-30T08:24:19;10.95;;;8.50;;
15126;SDS011;7664;52.008;4.748;2022-09-30T08:26:48;8.13;;;5.97;;
15126;SDS011;7664;52.008;4.748;2022-09-30T08:29:17;7.47;;;5.95;;
15126;SDS011;7664;52.008;4.748;2022-09-30T08:32:06;8.70;;;6.43;;
15126;SDS011;7664;52.008;4.748;2022-09-30T08:34:34;8.27;;;5.05;;
15126;SDS011;7664;52.008;4.748;2022-09-30T08:37:03;6.70;;;5.20;;
15126;SDS011;7664;52.008;4.748;2022-09-30T08:39:35;7.70;;;5.00;;
15126;SDS011;7664;52.008;4.748;2022-09-30T08:42:06;7.22;;;5.80;;
15126;SDS011;7664;52.008;4.748;2022-09-30T08:45:02;6.35;;;5.43;;
15126;SDS011;7664;52.008;4.748;2022-09-30T08:47:40;6.75;;;4.90;;
15126;SDS011;7664;52.008;4.748;2022-09-30T08:50:17;6.18;;;5.20;;
15126;SDS011;7664;52.008;4.748;2022-09-30T08:52:50;5.10;;;4.57;;
15126;SDS011;7664;52.008;4.748;2022-09-30T08:55:23;7.97;;;4.93;;
15126;SDS011;7664;52.008;4.748;2022-09-30T08:57:52;5.63;;;3.83;;
15126;SDS011;7664;52.008;4.748;2022-09-30T09:00:22;5.53;;;3.90;;
15126;SDS011;7664;52.008;4.748;2022-09-30T09:02:53;5.93;;;4.55;;
15126;SDS011;7664;52.008;4.748;2022-09-30T09:05:25;6.72;;;4.32;;
15126;SDS011;7664;52.008;4.748;2022-09-30T09:08:02;5.82;;;4.10;;
15126;SDS011;7664;52.008;4.748;2022-09-30T09:10:40;4.53;;;3.97;;
15126;SDS011;7664;52.008;4.748;2022-09-30T09:13:15;5.93;;;3.88;;
15126;SDS011;7664;52.008;4.748;2022-09-30T09:15:58;5.15;;;3.85;;
15126;SDS011;7664;52.008;4.748;2022-09-30T09:18:40;4.85;;;3.50;;
15126;SDS011;7664;52.008;4.748;2022-09-30T09:21:21;4.70;;;3.53;;
15126;SDS011;7664;52.008;4.748;2022-09-30T09:23:54;4.50;;;3.70;;
15126;SDS011;7664;52.008;4.748;2022-09-30T09:26:26;4.35;;;3.60;;
15126;SDS011;7664;52.008;4.748;2022-09-30T09:29:02;5.45;;;3.30;;
15126;SDS011;7664;52.008;4.748;2022-09-30T09:31:41;5.28;;;2.97;;
15126;SDS011;7664;52.008;4.748;2022-09-30T09:34:11;4.68;;;2.97;;
15126;SDS011;7664;52.008;4.748;2022-09-30T09:36:45;4.35;;;3.17;;
15126;SDS011;7664;52.008;4.748;2022-09-30T09:42:24;4.97;;;3.00;;
15126;SDS011;7664;52.008;4.748;2022-09-30T09:45:02;4.20;;;3.33;;
15126;SDS011;7664;52.008;4.748;2022-09-30T09:47:36;3.80;;;2.85;;
15126;SDS011;7664;52.008;4.748;2022-09-30T09:50:10;4.43;;;2.60;;
15126;SDS011;7664;52.008;4.748;2022-09-30T09:52:46;3.55;;;2.30;;
15126;SDS011;7664;52.008;4.748;2022-09-30T09:55:20;4.65;;;3.30;;
15126;SDS011;7664;52.008;4.748;2022-09-30T09:58:02;3.75;;;2.47;;
15126;SDS011;7664;52.008;4.748;2022-09-30T10:00:32;3.13;;;2.45;;
15126;SDS011;7664;52.008;4.748;2022-09-30T10:03:18;3.28;;;2.15;;
15126;SDS011;7664;52.008;4.748;2022-09-30T10:05:59;2.42;;;2.10;;
15126;SDS011;7664;52.008;4.748;2022-09-30T10:08:30;2.78;;;1.83;;
15126;SDS011;7664;52.008;4.748;2022-09-30T10:11:00;2.33;;;1.38;;
15126;SDS011;7664;52.008;4.748;2022-09-30T10:13:29;2.95;;;1.00;;
15126;SDS011;7664;52.008;4.748;2022-09-30T10:15:59;1.02;;;0.88;;
15126;SDS011;7664;52.008;4.748;2022-09-30T10:18:30;1.92;;;1.13;;
15126;SDS011;7664;52.008;4.748;2022-09-30T10:21:01;1.75;;;1.35;;
15126;SDS011;7664;52.008;4.748;2022-09-30T10:23:34;2.35;;;1.30;;
15126;SDS011;7664;52.008;4.748;2022-09-30T10:26:04;1.13;;;1.00;;
15126;SDS011;7664;52.008;4.748;2022-09-30T10:28:44;2.15;;;1.00;;
15126;SDS011;7664;52.008;4.748;2022-09-30T10:31:14;2.88;;;1.23;;
15126;SDS011;7664;52.008;4.748;2022-09-30T10:33:50;1.38;;;0.80;;
15126;SDS011;7664;52.008;4.748;2022-09-30T10:36:28;1.67;;;1.13;;
15126;SDS011;7664;52.008;4.748;2022-09-30T10:38:59;1.20;;;0.80;;
15126;SDS011;7664;52.008;4.748;2022-09-30T10:41:33;2.08;;;1.08;;
15126;SDS011;7664;52.008;4.748;2022-09-30T10:44:03;3.08;;;0.80;;
15126;SDS011;7664;52.008;4.748;2022-09-30T10:46:34;0.73;;;0.57;;
15126;SDS011;7664;52.008;4.748;2022-09-30T10:49:08;0.90;;;0.70;;
15126;SDS011;7664;52.008;4.748;2022-09-30T10:51:52;2.30;;;0.80;;
15126;SDS011;7664;52.008;4.748;2022-09-30T10:54:35;1.10;;;0.85;;
15126;SDS011;7664;52.008;4.748;2022-09-30T10:57:15;0.75;;;0.65;;
15126;SDS011;7664;52.008;4.748;2022-09-30T10:59:47;1.10;;;1.00;;
15126;SDS011;7664;52.008;4.748;2022-09-30T11:02:23;1.20;;;0.90;;
15126;SDS011;7664;52.008;4.748;2022-09-30T11:04:58;3.65;;;1.42;;
15126;SDS011;7664;52.008;4.748;2022-09-30T11:07:35;1.58;;;1.10;;
15126;SDS011;7664;52.008;4.748;2022-09-30T11:10:13;4.60;;;0.98;;
15126;SDS011;7664;52.008;4.748;2022-09-30T11:12:59;0.70;;;0.70;;
15126;SDS011;7664;52.008;4.748;2022-09-30T11:15:34;2.22;;;0.70;;
15126;SDS011;7664;52.008;4.748;2022-09-30T11:18:11;0.65;;;0.50;;
15126;SDS011;7664;52.008;4.748;2022-09-30T11:20:44;2.42;;;0.80;;
15126;SDS011;7664;52.008;4.748;2022-09-30T11:23:19;2.45;;;0.77;;
15126;SDS011;7664;52.008;4.748;2022-09-30T11:25:53;1.30;;;0.85;;
15126;SDS011;7664;52.008;4.748;2022-09-30T11:28:32;3.28;;;1.20;;
15126;SDS011;7664;52.008;4.748;2022-09-30T11:31:09;1.40;;;0.90;;
15126;SDS011;7664;52.008;4.748;2022-09-30T11:33:48;1.15;;;1.05;;
15126;SDS011;7664;52.008;4.748;2022-09-30T11:36:29;2.47;;;1.00;;
15126;SDS011;7664;52.008;4.748;2022-09-30T11:39:23;1.50;;;1.33;;
15126;SDS011;7664;52.008;4.748;2022-09-30T11:42:18;3.47;;;1.45;;
15126;SDS011;7664;52.008;4.748;2022-09-30T11:44:54;1.67;;;1.35;;
15126;SDS011;7664;52.008;4.748;2022-09-30T11:47:38;2.00;;;1.50;;
15126;SDS011;7664;52.008;4.748;2022-09-30T11:50:22;2.45;;;2.20;;
15126;SDS011;7664;52.008;4.748;2022-09-30T11:53:02;4.30;;;2.55;;
15126;SDS011;7664;52.008;4.748;2022-09-30T11:55:44;4.00;;;2.88;;
15126;SDS011;7664;52.008;4.748;2022-09-30T11:58:22;5.55;;;3.33;;
15126;SDS011;7664;52.008;4.748;2022-09-30T12:01:13;5.38;;;3.17;;
15126;SDS011;7664;52.008;4.748;2022-09-30T12:03:48;5.85;;;3.65;;
15126;SDS011;7664;52.008;4.748;2022-09-30T12:06:23;4.07;;;2.90;;
15126;SDS011;7664;52.008;4.748;2022-09-30T12:08:57;5.43;;;3.55;;
15126;SDS011;7664;52.008;4.748;2022-09-30T12:11:35;3.42;;;2.70;;
15126;SDS011;7664;52.008;4.748;2022-09-30T12:14:10;4.82;;;3.17;;
15126;SDS011;7664;52.008;4.748;2022-09-30T12:16:42;4.03;;;2.72;;
15126;SDS011;7664;52.008;4.748;2022-09-30T12:19:14;4.07;;;2.47;;
15126;SDS011;7664;52.008;4.748;2022-09-30T12:21:52;3.47;;;2.35;;
15126;SDS011;7664;52.008;4.748;2022-09-30T12:24:26;3.13;;;2.08;;
15126;SDS011;7664;52.008;4.748;2022-09-30T12:26:59;3.80;;;2.75;;
15126;SDS011;7664;52.008;4.748;2022-09-30T12:29:28;5.43;;;2.83;;
15126;SDS011;7664;52.008;4.748;2022-09-30T12:35:18;3.67;;;2.30;;
15126;SDS011;7664;52.008;4.748;2022-09-30T12:38:09;5.00;;;2.88;;
15126;SDS011;7664;52.008;4.748;2022-09-30T12:40:56;4.45;;;2.60;;
15126;SDS011;7664;52.008;4.748;2022-09-30T12:46:47;5.65;;;2.50;;
15126;SDS011;7664;52.008;4.748;2022-09-30T12:49:29;2.67;;;1.90;;
15126;SDS011;7664;52.008;4.748;2022-09-30T12:51:59;2.58;;;1.83;;
15126;SDS011;7664;52.008;4.748;2022-09-30T12:54:32;2.75;;;1.50;;
15126;SDS011;7664;52.008;4.748;2022-09-30T12:57:05;2.80;;;2.10;;
15126;SDS011;7664;52.008;4.748;2022-09-30T12:59:36;3.00;;;2.30;;
15126;SDS011;7664;52.008;4.748;2022-09-30T13:02:21;4.30;;;2.33;;
15126;SDS011;7664;52.008;4.748;2022-09-30T13:14:21;5.18;;;2.20;;
15126;SDS011;7664;52.008;4.748;2022-09-30T13:16:58;2.72;;;1.80;;
15126;SDS011;7664;52.008;4.748;2022-09-30T13:19:33;1.90;;;1.58;;
15126;SDS011;7664;52.008;4.748;2022-09-30T13:25:18;3.80;;;2.75;;
15126;SDS011;7664;52.008;4.748;2022-09-30T13:27:47;4.75;;;2.10;;
15126;SDS011;7664;52.008;4.748;2022-09-30T13:36:18;3.53;;;2.60;;
15126;SDS011;7664;52.008;4.748;2022-09-30T13:41:45;3.25;;;2.30;;
15126;SDS011;7664;52.008;4.748;2022-09-30T13:44:24;2.67;;;1.65;;
15126;SDS011;7664;52.008;4.748;2022-09-30T13:46:59;1.90;;;1.70;;
15126;SDS011;7664;52.008;4.748;2022-09-30T13:49:38;2.00;;;1.80;;
15126;SDS011;7664;52.008;4.748;2022-09-30T13:52:17;2.13;;;1.83;;
15126;SDS011;7664;52.008;4.748;2022-09-30T13:54:49;3.60;;;1.90;;
15126;SDS011;7664;52.008;4.748;2022-09-30T13:57:20;2.85;;;1.73;;
15126;SDS011;7664;52.008;4.748;2022-09-30T14:00:01;3.13;;;1.88;;
15126;SDS011;7664;52.008;4.748;2022-09-30T14:02:54;2.95;;;1.73;;
15126;SDS011;7664;52.008;4.748;2022-09-30T14:05:47;2.17;;;1.83;;
15126;SDS011;7664;52.008;4.748;2022-09-30T14:08:30;3.97;;;2.33;;
15126;SDS011;7664;52.008;4.748;2022-09-30T14:11:23;3.13;;;2.00;;
15126;SDS011;7664;52.008;4.748;2022-09-30T14:17:31;2.45;;;1.92;;
15126;SDS011;7664;52.008;4.748;2022-09-30T14:20:14;4.65;;;2.40;;
15126;SDS011;7664;52.008;4.748;2022-09-30T14:22:55;2.45;;;2.03;;
15126;SDS011;7664;52.008;4.748;2022-09-30T14:25:24;3.42;;;2.38;;
15126;SDS011;7664;52.008;4.748;2022-09-30T14:28:01;2.35;;;1.88;;
15126;SDS011;7664;52.008;4.748;2022-09-30T14:30:31;3.83;;;2.40;;
15126;SDS011;7664;52.008;4.748;2022-09-30T14:33:08;4.60;;;2.83;;
15126;SDS011;7664;52.008;4.748;2022-09-30T14:35:37;3.20;;;2.45;;
15126;SDS011;7664;52.008;4.748;2022-09-30T14:38:12;3.47;;;2.50;;
15126;SDS011;7664;52.008;4.748;2022-09-30T14:40:49;2.65;;;2.25;;
15126;SDS011;7664;52.008;4.748;2022-09-30T14:43:19;3.40;;;3.00;;
15126;SDS011;7664;52.008;4.748;2022-09-30T14:45:50;4.85;;;2.88;;
15126;SDS011;7664;52.008;4.748;2022-09-30T14:48:21;8.88;;;3.42;;
15126;SDS011;7664;52.008;4.748;2022-09-30T14:50:55;4.60;;;3.35;;
15126;SDS011;7664;52.008;4.748;2022-09-30T14:53:25;4.35;;;3.20;;
15126;SDS011;7664;52.008;4.748;2022-09-30T14:55:56;5.18;;;3.47;;
15126;SDS011;7664;52.008;4.748;2022-09-30T14:58:25;3.47;;;2.83;;
15126;SDS011;7664;52.008;4.748;2022-09-30T15:00:57;4.13;;;3.03;;
15126;SDS011;7664;52.008;4.748;2022-09-30T15:03:28;5.90;;;3.05;;
15126;SDS011;7664;52.008;4.748;2022-09-30T15:05:58;4.30;;;3.28;;
15126;SDS011;7664;52.008;4.748;2022-09-30T15:08:26;4.40;;;2.72;;
15126;SDS011;7664;52.008;4.748;2022-09-30T15:10:56;2.80;;;2.50;;
15126;SDS011;7664;52.008;4.748;2022-09-30T15:13:25;4.70;;;2.70;;
15126;SDS011;7664;52.008;4.748;2022-09-30T15:15:57;3.17;;;2.28;;
15126;SDS011;7664;52.008;4.748;2022-09-30T15:18:29;4.30;;;2.15;;
15126;SDS011;7664;52.008;4.748;2022-09-30T15:21:00;2.88;;;2.00;;
15126;SDS011;7664;52.008;4.748;2022-09-30T15:23:35;3.38;;;2.40;;
15126;SDS011;7664;52.008;4.748;2022-09-30T15:26:08;4.80;;;2.00;;
15126;SDS011;7664;52.008;4.748;2022-09-30T15:28:37;4.80;;;2.90;;
15126;SDS011;7664;52.008;4.748;2022-09-30T15:31:06;3.97;;;2.60;;
15126;SDS011;7664;52.008;4.748;2022-09-30T15:33:44;3.95;;;2.58;;
15126;SDS011;7664;52.008;4.748;2022-09-30T15:36:12;6.30;;;2.53;;
15126;SDS011;7664;52.008;4.748;2022-09-30T15:38:45;4.45;;;2.30;;
15126;SDS011;7664;52.008;4.748;2022-09-30T15:41:17;9.25;;;2.38;;
15126;SDS011;7664;52.008;4.748;2022-09-30T15:43:46;3.65;;;2.40;;
15126;SDS011;7664;52.008;4.748;2022-09-30T15:46:21;4.72;;;2.80;;
15126;SDS011;7664;52.008;4.748;2022-09-30T15:49:03;3.00;;;2.20;;
15126;SDS011;7664;52.008;4.748;2022-09-30T15:51:34;5.47;;;2.55;;
15126;SDS011;7664;52.008;4.748;2022-09-30T15:57:01;3.22;;;2.65;;
15126;SDS011;7664;52.008;4.748;2022-09-30T15:59:58;4.50;;;2.38;;
15126;SDS011;7664;52.008;4.748;2022-09-30T16:02:28;4.72;;;2.75;;
15126;SDS011;7664;52.008;4.748;2022-09-30T16:04:56;4.28;;;2.63;;
15126;SDS011;7664;52.008;4.748;2022-09-30T16:07:27;3.42;;;2.70;;
15126;SDS011;7664;52.008;4.748;2022-09-30T16:09:57;4.53;;;3.20;;
15126;SDS011;7664;52.008;4.748;2022-09-30T16:12:27;5.95;;;2.50;;
15126;SDS011;7664;52.008;4.748;2022-09-30T16:14:59;2.85;;;2.25;;
15126;SDS011;7664;52.008;4.748;2022-09-30T16:17:35;4.75;;;2.90;;
15126;SDS011;7664;52.008;4.748;2022-09-30T16:20:05;2.10;;;1.85;;